createdAt,value
2023-06-17T00:01:11.473Z,91.23
2023-06-17T00:02:51.833Z,91.2
2023-06-17T00:04:32.303Z,91.65
2023-06-17T00:06:12.774Z,91.81
2023-06-17T00:07:53.194Z,91.91
2023-06-17T00:09:33.457Z,91.82
2023-06-17T00:11:13.790Z,91.54
2023-06-17T00:12:54.054Z,91.98
2023-06-17T00:14:34.369Z,92.68
2023-06-17T00:16:14.752Z,92.41
2023-06-17T00:17:55.251Z,92.76
2023-06-17T00:19:35.622Z,92.76
2023-06-17T00:21:16.033Z,92.44
2023-06-17T00:22:56.584Z,92.59
2023-06-17T00:24:37.014Z,92.64
2023-06-17T00:26:17.376Z,92.01
2023-06-17T00:27:57.806Z,91.71
2023-06-17T00:29:38.232Z,92.1
2023-06-17T00:31:18.764Z,92.07
2023-06-17T00:32:59.211Z,92.3
2023-06-17T00:34:39.756Z,92.57
2023-06-17T00:36:20.250Z,92.83
2023-06-17T00:38:00.698Z,93.62
2023-06-17T00:39:40.991Z,94.23
2023-06-17T00:41:21.389Z,94.17
2023-06-17T00:43:01.904Z,94.4
2023-06-17T00:44:42.371Z,94.07
2023-06-17T00:46:22.797Z,94.3
2023-06-17T00:48:03.194Z,94.39
2023-06-17T00:49:43.558Z,94.64
2023-06-17T00:51:24.011Z,94.78
2023-06-17T00:53:04.481Z,94.44
2023-06-17T00:54:44.962Z,94.25
2023-06-17T00:56:25.498Z,94.35
2023-06-17T00:58:05.968Z,94.12
2023-06-17T00:59:46.381Z,94.38
2023-06-17T01:01:26.757Z,93.92
2023-06-17T01:03:07.350Z,93.8
2023-06-17T01:04:47.862Z,93.64
2023-06-17T01:06:28.101Z,93.28
2023-06-17T01:08:08.458Z,93.06
2023-06-17T01:09:48.788Z,92.99
2023-06-17T01:11:29.121Z,92.81
2023-06-17T01:13:09.407Z,93.18
2023-06-17T01:14:49.725Z,93.16
2023-06-17T01:16:30.241Z,93.11
2023-06-17T01:18:10.794Z,92.61
2023-06-17T01:19:51.223Z,92.48
2023-06-17T01:21:31.719Z,92.41
2023-06-17T01:23:12.204Z,92.39
2023-06-17T01:24:52.760Z,92.56
2023-06-17T01:26:33.227Z,92.72
2023-06-17T01:28:13.705Z,92.75
2023-06-17T01:29:54.159Z,93.36
2023-06-17T01:31:34.645Z,93.35
2023-06-17T01:33:15.178Z,93.44
2023-06-17T01:34:55.561Z,93.49
2023-06-17T01:36:36.015Z,93.65
2023-06-17T01:38:16.481Z,94.09
2023-06-17T01:39:56.947Z,94.4
2023-06-17T01:41:37.465Z,94.52
2023-06-17T01:43:17.830Z,94.56
2023-06-17T01:44:58.232Z,94.45
2023-06-17T01:46:38.622Z,94.35
2023-06-17T01:48:18.927Z,94.67
2023-06-17T01:49:59.257Z,94.57
2023-06-17T01:51:39.627Z,94.8
2023-06-17T01:53:20.107Z,94.89
2023-06-17T01:55:00.487Z,94.77
2023-06-17T01:56:40.964Z,94.89
2023-06-17T01:58:21.397Z,94.89
2023-06-17T02:00:01.775Z,95.03
2023-06-17T02:01:42.173Z,95.42
2023-06-17T02:03:22.743Z,95.49
2023-06-17T02:05:02.977Z,95.77
2023-06-17T02:06:43.302Z,95.53
2023-06-17T02:08:23.747Z,95.23
2023-06-17T02:10:04.175Z,94.98
2023-06-17T02:11:44.575Z,95
2023-06-17T02:13:25.009Z,94.93
2023-06-17T02:15:05.417Z,94.64
2023-06-17T02:16:45.843Z,95.05
2023-06-17T02:18:26.332Z,95.03
2023-06-17T02:20:06.786Z,95.14
2023-06-17T02:21:47.180Z,95.05
2023-06-17T02:23:27.609Z,94.76
2023-06-17T02:25:08.030Z,94.61
2023-06-17T02:26:48.488Z,94.59
2023-06-17T02:28:28.962Z,94.66
2023-06-17T02:30:09.504Z,94.53
2023-06-17T02:31:50.000Z,95
2023-06-17T02:33:30.433Z,95.24
2023-06-17T02:35:10.945Z,95.39
2023-06-17T02:36:51.369Z,95.54
2023-06-17T02:38:31.806Z,95.36
2023-06-17T02:40:12.238Z,94.93
2023-06-17T02:41:52.577Z,94.71
2023-06-17T02:43:33.086Z,94.42
2023-06-17T02:45:13.491Z,94.48
2023-06-17T02:46:54.052Z,94.57
2023-06-17T02:48:34.419Z,94.42
2023-06-17T02:50:14.944Z,94.58
2023-06-17T02:51:55.508Z,94.54
2023-06-17T02:53:35.916Z,94.7
2023-06-17T02:55:16.483Z,95
2023-06-17T02:56:56.855Z,95.14
2023-06-17T02:58:37.258Z,94.94
2023-06-17T03:00:17.708Z,94.62
2023-06-17T03:01:58.018Z,94.46
2023-06-17T03:03:38.352Z,94.32
2023-06-17T03:05:18.730Z,94.89
2023-06-17T03:06:59.194Z,94.98
2023-06-17T03:08:39.679Z,95.23
2023-06-17T03:10:20.359Z,95.19
2023-06-17T03:12:00.567Z,94.96
2023-06-17T03:13:41.025Z,95.14
2023-06-17T03:15:21.515Z,95.26
2023-06-17T03:17:02.390Z,95.21
2023-06-17T03:18:42.378Z,95.11
2023-06-17T03:20:23.040Z,94.96
2023-06-17T03:22:03.223Z,95.16
2023-06-17T03:23:43.596Z,95.43
2023-06-17T03:25:24.081Z,95.27
2023-06-17T03:27:04.550Z,95.21
2023-06-17T03:28:44.960Z,95.17
2023-06-17T03:30:25.459Z,95.08
2023-06-17T03:32:05.787Z,95.33
2023-06-17T03:33:46.079Z,95.74
2023-06-17T03:35:26.424Z,96.06
2023-06-17T03:37:06.729Z,96.14
2023-06-17T03:38:47.146Z,96.16
2023-06-17T03:40:27.585Z,96.16
2023-06-17T03:42:08.080Z,96.18
2023-06-17T03:43:48.529Z,96.03
2023-06-17T03:45:29.002Z,95.82
2023-06-17T03:47:09.474Z,95.77
2023-06-17T03:48:49.952Z,95.65
2023-06-17T03:50:30.398Z,95.84
2023-06-17T03:52:10.863Z,96.11
2023-06-17T03:53:51.344Z,96.52
2023-06-17T03:55:31.826Z,96.76
2023-06-17T03:57:12.277Z,96.84
2023-06-17T03:58:52.682Z,97.02
2023-06-17T04:00:33.161Z,97.2
2023-06-17T04:02:13.559Z,97.14
2023-06-17T04:03:54.100Z,96.98
2023-06-17T04:05:34.645Z,96.84
2023-06-17T04:07:14.795Z,96.67
2023-06-17T04:08:55.320Z,96.6
2023-06-17T04:10:35.768Z,96.75
2023-06-17T04:12:16.154Z,96.76
2023-06-17T04:13:56.578Z,96.7
2023-06-17T04:15:37.071Z,96.53
2023-06-17T04:17:17.475Z,96.54
2023-06-17T04:18:57.779Z,96.46
2023-06-17T04:20:38.165Z,96.57
2023-06-17T04:22:18.674Z,97.17
2023-06-17T04:23:59.118Z,97.26
2023-06-17T04:25:39.575Z,97.4
2023-06-17T04:27:19.961Z,97.55
2023-06-17T04:29:00.418Z,97.29
2023-06-17T04:30:40.901Z,96.92
2023-06-17T04:32:21.188Z,96.68
2023-06-17T04:34:01.568Z,96.54
2023-06-17T04:35:42.096Z,96.32
2023-06-17T04:37:22.598Z,96.26
2023-06-17T04:39:03.098Z,96.11
2023-06-17T04:40:43.620Z,96.29
2023-06-17T04:42:24.020Z,96.33
2023-06-17T04:44:04.496Z,96.35
2023-06-17T04:45:45.019Z,96.25
2023-06-17T04:47:25.500Z,96.4
2023-06-17T04:49:05.931Z,96.64
2023-06-17T04:50:46.325Z,96.96
2023-06-17T04:52:26.851Z,97.28
2023-06-17T04:54:07.288Z,97.33
2023-06-17T04:55:47.680Z,97.19
2023-06-17T04:57:28.036Z,96.78
2023-06-17T04:59:08.374Z,96.48
2023-06-17T05:00:48.862Z,96.11
2023-06-17T05:02:29.247Z,95.77
2023-06-17T05:04:09.750Z,95.28
2023-06-17T05:05:50.224Z,94.77
2023-06-17T05:07:30.755Z,94.18
2023-06-17T05:09:11.206Z,93.82
2023-06-17T05:10:51.611Z,93.78
2023-06-17T05:12:31.948Z,93.81
2023-06-17T05:14:12.403Z,93.86
2023-06-17T05:15:52.784Z,93.79
2023-06-17T05:17:33.282Z,93.71
2023-06-17T05:19:13.580Z,93.61
2023-06-17T05:20:53.978Z,93.34
2023-06-17T05:22:34.382Z,92.96
2023-06-17T05:24:14.827Z,92.83
2023-06-17T05:25:55.124Z,92.4
2023-06-17T05:27:35.514Z,92.2
2023-06-17T05:29:15.919Z,91.85
2023-06-17T05:30:56.353Z,91.43
2023-06-17T05:32:36.656Z,91.28
2023-06-17T05:34:17.075Z,91.38
2023-06-17T05:35:57.510Z,90.85
2023-06-17T05:37:37.988Z,90.87
2023-06-17T05:39:18.329Z,90.16
2023-06-17T05:40:58.700Z,89.7
2023-06-17T05:42:39.154Z,89.1
2023-06-17T05:44:19.674Z,88.7
2023-06-17T05:46:00.197Z,87.59
2023-06-17T05:47:40.654Z,87.26
2023-06-17T05:49:21.009Z,86.41
2023-06-17T05:51:01.475Z,86.45
2023-06-17T05:52:41.897Z,84.17
2023-06-17T05:54:22.276Z,84.02
2023-06-17T05:56:02.684Z,81.69
2023-06-17T05:57:43.159Z,81.55
2023-06-17T05:59:23.589Z,80.14
2023-06-17T06:01:04.067Z,79.99
2023-06-17T06:02:44.576Z,78.2
2023-06-17T06:04:25.017Z,78.47
2023-06-17T06:06:05.490Z,77.24
2023-06-17T06:07:45.901Z,75.87
2023-06-17T06:09:26.199Z,75.77
2023-06-17T06:11:06.610Z,74.94
2023-06-17T06:12:46.906Z,74.86
2023-06-17T06:14:27.261Z,74.14
2023-06-17T06:16:07.728Z,73.01
2023-06-17T06:17:48.192Z,72.17
2023-06-17T06:19:28.633Z,71.62
2023-06-17T06:21:09.164Z,70.68
2023-06-17T06:22:49.594Z,69.79
2023-06-17T06:24:30.137Z,70.2
2023-06-17T06:26:10.630Z,68.51
2023-06-17T06:27:51.052Z,68.82
2023-06-17T06:29:31.439Z,68.74
2023-06-17T06:31:11.954Z,67.45
2023-06-17T06:32:52.349Z,67
2023-06-17T06:34:32.720Z,65.16
2023-06-17T06:36:13.178Z,64.47
2023-06-17T06:37:53.616Z,64.46
2023-06-17T06:39:34.114Z,65.34
2023-06-17T06:41:14.434Z,65.28
2023-06-17T06:42:54.946Z,63.06
2023-06-17T06:44:35.332Z,61.35
2023-06-17T06:46:16.541Z,60.9
2023-06-17T06:47:56.362Z,59.95
2023-06-17T06:49:36.710Z,58.76
2023-06-17T06:51:17.138Z,58.34
2023-06-17T06:52:57.520Z,56.39
2023-06-17T06:54:38.089Z,56.46
2023-06-17T06:56:18.488Z,55.64
2023-06-17T06:57:58.923Z,56.24
2023-06-17T06:59:39.288Z,55.82
2023-06-17T07:01:19.659Z,56.93
2023-06-17T07:02:59.983Z,54.65
2023-06-17T07:04:40.283Z,53.89
2023-06-17T07:06:20.552Z,53.28
2023-06-17T07:08:00.957Z,52.82
2023-06-17T07:09:41.362Z,55.19
2023-06-17T07:11:21.790Z,52.7
2023-06-17T07:13:02.230Z,51.21
2023-06-17T07:14:42.699Z,53.24
2023-06-17T07:16:23.142Z,52.22
2023-06-17T07:18:03.646Z,51.72
2023-06-17T07:19:44.015Z,50.39
2023-06-17T07:21:24.421Z,49.27
2023-06-17T07:23:04.845Z,50.43
2023-06-17T07:24:45.365Z,49.6
2023-06-17T07:26:25.792Z,49.14
2023-06-17T07:28:06.259Z,48.87
2023-06-17T07:29:46.660Z,45.89
2023-06-17T07:31:27.342Z,46.22
2023-06-17T07:33:07.611Z,46.8
2023-06-17T07:34:47.909Z,44.78
2023-06-17T07:36:28.286Z,43.62
2023-06-17T07:38:08.717Z,44.31
2023-06-17T07:39:49.164Z,43.73
2023-06-17T07:41:29.560Z,43.73
2023-06-17T07:43:10.020Z,44.57
2023-06-17T07:44:50.445Z,44.9
2023-06-17T07:46:30.864Z,44.44
2023-06-17T07:48:11.414Z,43.74
2023-06-17T07:49:51.801Z,43.05
2023-06-17T07:51:32.244Z,43.11
2023-06-17T07:53:12.634Z,42.94
2023-06-17T07:54:53.124Z,42.46
2023-06-17T07:56:33.546Z,43.14
2023-06-17T07:58:13.966Z,43.27
2023-06-17T07:59:54.445Z,42.78
2023-06-17T08:01:34.897Z,41.16
2023-06-17T08:03:15.380Z,41.49
2023-06-17T08:04:55.739Z,40.36
2023-06-17T08:06:36.109Z,40.61
2023-06-17T08:08:16.527Z,40.16
2023-06-17T08:09:56.873Z,40.45
2023-06-17T08:11:37.210Z,39.91
2023-06-17T08:13:17.649Z,41.15
2023-06-17T08:14:58.117Z,40.61
2023-06-17T08:16:38.646Z,39.28
2023-06-17T08:18:19.057Z,39.13
2023-06-17T08:19:59.491Z,39.38
2023-06-17T08:21:39.948Z,38.4
2023-06-17T08:23:20.424Z,38.46
2023-06-17T08:25:00.825Z,38.47
2023-06-17T08:26:41.301Z,38.75
2023-06-17T08:28:21.740Z,39.03
2023-06-17T08:30:02.302Z,38.42
2023-06-17T08:31:42.648Z,38.31
2023-06-17T08:33:23.259Z,37.31
2023-06-17T08:35:03.713Z,37
2023-06-17T08:36:44.122Z,36.77
2023-06-17T08:38:24.479Z,37.08
2023-06-17T08:40:04.903Z,36.63
2023-06-17T08:41:45.202Z,38.12
2023-06-17T08:43:25.570Z,38.55
2023-06-17T08:45:05.897Z,36.66
2023-06-17T08:46:46.362Z,37.74
2023-06-17T08:48:26.749Z,37.09
2023-06-17T08:50:07.228Z,37.63
2023-06-17T08:51:47.583Z,36.39
2023-06-17T08:53:28.005Z,36.88
2023-06-17T08:55:08.526Z,36.25
2023-06-17T08:56:48.975Z,35.41
2023-06-17T08:58:29.350Z,35.58
2023-06-17T09:00:09.769Z,35.41
2023-06-17T09:01:50.231Z,35.53
2023-06-17T09:03:30.707Z,35.45
2023-06-17T09:05:11.178Z,35.38
2023-06-17T09:06:51.589Z,35.78
2023-06-17T09:08:32.074Z,35.62
2023-06-17T09:10:12.431Z,34.97
2023-06-17T09:11:53.250Z,35.36
2023-06-17T09:13:33.190Z,34.65
2023-06-17T09:15:13.573Z,34.63
2023-06-17T09:16:54.048Z,34.55
2023-06-17T09:18:34.405Z,33.98
2023-06-17T09:20:14.901Z,34.4
2023-06-17T09:21:55.333Z,34.17
2023-06-17T09:23:35.764Z,33.18
2023-06-17T09:25:16.289Z,33.7
2023-06-17T09:26:56.780Z,34.77
2023-06-17T09:28:37.274Z,33.75
2023-06-17T09:30:17.843Z,33.47
2023-06-17T09:31:58.216Z,33.47
2023-06-17T09:33:38.633Z,32.54
2023-06-17T09:35:19.014Z,33.84
2023-06-17T09:36:59.509Z,32.48
2023-06-17T09:38:39.895Z,33.09
2023-06-17T09:40:20.696Z,34.47
2023-06-17T09:42:00.763Z,34.37
2023-06-17T09:43:41.081Z,32.18
2023-06-17T09:45:21.475Z,31.09
2023-06-17T09:47:02.073Z,32.22
2023-06-17T09:48:42.472Z,32.14
2023-06-17T09:50:23.284Z,32.05
2023-06-17T09:52:03.383Z,31.42
2023-06-17T09:53:43.750Z,32.04
2023-06-17T09:55:24.194Z,31.12
2023-06-17T09:57:04.570Z,33.21
2023-06-17T09:58:45.169Z,31.82
2023-06-17T10:00:25.465Z,32.16
2023-06-17T10:02:05.980Z,31.46
2023-06-17T10:03:46.614Z,30.49
2023-06-17T10:05:26.866Z,30.77
2023-06-17T10:07:07.362Z,31.77
2023-06-17T10:08:47.684Z,31.46
2023-06-17T10:10:27.994Z,31.22
2023-06-17T10:12:08.265Z,31.11
2023-06-17T10:13:48.679Z,30.84
2023-06-17T10:15:29.073Z,30.31
2023-06-17T10:17:09.475Z,29
2023-06-17T10:18:49.943Z,30.12
2023-06-17T10:20:30.484Z,29.69
2023-06-17T10:22:10.727Z,29.29
2023-06-17T10:23:51.245Z,30.66
2023-06-17T10:25:31.602Z,30.72
2023-06-17T10:27:11.969Z,28.46
2023-06-17T10:28:52.450Z,28.88
2023-06-17T10:30:32.965Z,30.24
2023-06-17T10:32:13.388Z,28.5
2023-06-17T10:33:53.861Z,29.21
2023-06-17T10:35:34.314Z,29.92
2023-06-17T10:37:14.713Z,29.44
2023-06-17T10:38:55.210Z,29.21
2023-06-17T10:40:35.716Z,29.4
2023-06-17T10:42:16.218Z,28.69
2023-06-17T10:43:56.632Z,28.69
2023-06-17T10:45:37.142Z,28.8
2023-06-17T10:47:17.545Z,29.06
2023-06-17T10:48:57.951Z,29.64
2023-06-17T10:50:38.370Z,29.86
2023-06-17T10:52:18.821Z,29.19
2023-06-17T10:53:59.272Z,29.49
2023-06-17T10:55:39.715Z,28.64
2023-06-17T10:57:20.142Z,28.89
2023-06-17T10:59:00.560Z,30.16
2023-06-17T11:00:41.042Z,31.13
2023-06-17T11:02:21.410Z,31.27
2023-06-17T11:04:01.657Z,30.61
2023-06-17T11:05:41.947Z,30.37
2023-06-17T11:07:22.359Z,28.13
2023-06-17T11:09:02.894Z,29.56
2023-06-17T11:10:43.337Z,29.15
2023-06-17T11:12:23.824Z,29.52
2023-06-17T11:14:04.172Z,31.91
2023-06-17T11:15:44.618Z,29.47
2023-06-17T11:17:25.138Z,29.64
2023-06-17T11:19:05.581Z,29.46
2023-06-17T11:20:45.957Z,28.35
2023-06-17T11:22:26.425Z,27.86
2023-06-17T11:24:06.959Z,28.69
2023-06-17T11:25:47.278Z,28.07
2023-06-17T11:27:27.679Z,29.05
2023-06-17T11:29:08.105Z,28.95
2023-06-17T11:30:48.699Z,28.49
2023-06-17T11:32:29.138Z,29.36
2023-06-17T11:34:09.391Z,28.13
2023-06-17T11:35:49.778Z,28.16
2023-06-17T11:37:30.069Z,28.43
2023-06-17T11:39:10.437Z,28.81
2023-06-17T11:40:50.841Z,28.72
2023-06-17T11:42:31.163Z,28.7
2023-06-17T11:44:11.453Z,28.25
2023-06-17T11:45:51.881Z,30.54
2023-06-17T11:47:32.413Z,29.68
2023-06-17T11:49:12.842Z,29.88
2023-06-17T11:50:53.311Z,30.42
2023-06-17T11:52:33.777Z,30.19
2023-06-17T11:54:14.246Z,30.16
2023-06-17T11:55:54.693Z,31.44
2023-06-17T11:57:35.171Z,29.78
2023-06-17T11:59:15.716Z,30.02
2023-06-17T12:00:56.137Z,30.61
2023-06-17T12:02:36.729Z,30.48
2023-06-17T12:04:17.078Z,29.24
2023-06-17T12:05:57.476Z,29.03
2023-06-17T12:07:37.831Z,29.35
2023-06-17T12:09:18.212Z,28.62
2023-06-17T12:10:58.502Z,29.11
2023-06-17T12:12:38.862Z,28.87
2023-06-17T12:14:19.156Z,28.78
2023-06-17T12:15:59.673Z,29.4
2023-06-17T12:17:40.156Z,28.21
2023-06-17T12:19:20.636Z,28.86
2023-06-17T12:21:01.064Z,28.91
2023-06-17T12:22:41.440Z,28.01
2023-06-17T12:24:21.959Z,29.05
2023-06-17T12:26:02.303Z,28.93
2023-06-17T12:27:42.779Z,29.27
2023-06-17T12:29:26.182Z,30.94
2023-06-17T12:31:03.818Z,28.31
2023-06-17T12:32:44.687Z,29.42
2023-06-17T12:34:24.691Z,28.39
2023-06-17T12:36:05.092Z,28.19
2023-06-17T12:37:45.500Z,28.73
2023-06-17T12:39:25.848Z,27.55
2023-06-17T12:41:06.114Z,28
2023-06-17T12:42:46.427Z,27.91
2023-06-17T12:44:26.796Z,28.17
2023-06-17T12:46:07.252Z,27.55
2023-06-17T12:47:47.801Z,29.55
2023-06-17T12:49:28.207Z,27.55
2023-06-17T12:51:08.746Z,28.2
2023-06-17T12:52:49.184Z,27.57
2023-06-17T12:54:29.633Z,27.26
2023-06-17T12:56:10.210Z,27.76
2023-06-17T12:57:50.568Z,26.67
2023-06-17T12:59:30.908Z,26.8
2023-06-17T13:01:11.408Z,26.63
2023-06-17T13:02:51.860Z,27.99
2023-06-17T13:04:32.473Z,27.46
2023-06-17T13:06:12.820Z,26.81
2023-06-17T13:07:53.134Z,26.99
2023-06-17T13:09:33.583Z,27.33
2023-06-17T13:11:13.934Z,26.35
2023-06-17T13:12:54.272Z,26.52
2023-06-17T13:14:34.722Z,26.65
2023-06-17T13:16:15.159Z,26.42
2023-06-17T13:17:55.683Z,26.32
2023-06-17T13:19:36.116Z,26.47
2023-06-17T13:21:21.800Z,27
2023-06-17T13:23:02.255Z,27.54
2023-06-17T13:24:42.646Z,27.57
2023-06-17T13:26:30.444Z,28.44
2023-06-17T13:28:10.870Z,28.92
2023-06-17T13:29:51.254Z,28.18
2023-06-17T13:31:31.659Z,27.5
2023-06-17T13:33:12.144Z,27.11
2023-06-17T13:34:52.580Z,28.55
2023-06-17T13:36:33.074Z,27.77
2023-06-17T13:38:17.655Z,28.18
2023-06-17T13:40:10.241Z,29.13
2023-06-17T13:41:50.503Z,28.73
2023-06-17T13:43:41.734Z,28.89
2023-06-17T13:45:22.498Z,29.39
2023-06-17T13:47:02.528Z,30.75
2023-06-17T13:48:55.182Z,30.86
2023-06-17T13:50:37.405Z,31.57
2023-06-17T13:52:15.905Z,32.65
2023-06-17T13:53:56.244Z,32.09
2023-06-17T13:55:36.620Z,31.97
2023-06-17T13:57:17.073Z,31.69
2023-06-17T13:58:57.424Z,32.17
2023-06-17T14:00:37.830Z,32.23
2023-06-17T14:02:18.277Z,32.03
2023-06-17T14:03:58.770Z,31.71
2023-06-17T14:05:39.014Z,31.68
2023-06-17T14:07:19.463Z,31.54
2023-06-17T14:08:59.841Z,31.33
2023-06-17T14:10:40.233Z,30.8
2023-06-17T14:12:20.641Z,31.31
2023-06-17T14:14:00.973Z,30.06
2023-06-17T14:15:41.380Z,30.53
2023-06-17T14:17:21.814Z,30.94
2023-06-17T14:19:02.122Z,31.76
2023-06-17T14:20:42.515Z,31.83
2023-06-17T14:22:22.869Z,32.69
2023-06-17T14:24:03.246Z,33.86
2023-06-17T14:25:43.541Z,33.25
2023-06-17T14:27:23.951Z,34.04
2023-06-17T14:29:04.327Z,33.6
2023-06-17T14:30:44.671Z,33.9
2023-06-17T14:32:24.998Z,33.83
2023-06-17T14:34:05.361Z,33.96
2023-06-17T14:35:45.764Z,33.09
2023-06-17T14:37:26.086Z,32.47
2023-06-17T14:39:06.540Z,32.23
2023-06-17T14:40:46.953Z,31.08
2023-06-17T14:42:27.317Z,32.43
2023-06-17T14:44:07.718Z,31.17
2023-06-17T14:45:48.184Z,31.7
2023-06-17T14:47:28.590Z,31.21
2023-06-17T14:49:08.833Z,30.89
2023-06-17T14:50:49.088Z,31.64
2023-06-17T14:52:29.467Z,31.45
2023-06-17T14:54:09.839Z,31.67
2023-06-17T14:55:50.241Z,32.67
2023-06-17T14:57:32.657Z,33.43
2023-06-17T14:59:11.001Z,34.09
2023-06-17T15:01:03.203Z,34.46
2023-06-17T15:02:43.561Z,34.72
2023-06-17T15:04:23.946Z,35.09
2023-06-17T15:06:04.298Z,34.99
2023-06-17T15:07:44.724Z,35.2
2023-06-17T15:09:25.101Z,35.01
2023-06-17T15:11:10.350Z,34.72
2023-06-17T15:12:50.678Z,34.02
2023-06-17T15:14:31.078Z,34.3
2023-06-17T15:16:11.425Z,32.98
2023-06-17T15:17:51.895Z,33.25
2023-06-17T15:19:32.198Z,31.93
2023-06-17T15:21:12.531Z,32.77
2023-06-17T15:22:52.930Z,32.96
2023-06-17T15:24:33.413Z,33.27
2023-06-17T15:26:13.652Z,32.72
2023-06-17T15:27:54.066Z,33
2023-06-17T15:29:34.397Z,33.53
2023-06-17T15:31:14.853Z,34.15
2023-06-17T15:32:55.282Z,34.98
2023-06-17T15:34:35.620Z,34.72
2023-06-17T15:36:16.010Z,35.36
2023-06-17T15:37:56.334Z,35.61
2023-06-17T15:39:36.664Z,36.24
2023-06-17T15:41:17.124Z,36.47
2023-06-17T15:42:57.578Z,37.01
2023-06-17T15:44:37.912Z,36.79
2023-06-17T15:46:18.256Z,36.79
2023-06-17T15:47:59.800Z,36.77
2023-06-17T15:49:38.948Z,36.8
2023-06-17T15:51:19.278Z,36.55
2023-06-17T15:52:59.585Z,35.33
2023-06-17T15:54:39.912Z,34.97
2023-06-17T15:56:20.174Z,35.34
2023-06-17T15:58:00.577Z,34.66
2023-06-17T15:59:40.987Z,34.13
2023-06-17T16:01:21.329Z,34.67
2023-06-17T16:03:01.756Z,33.69
2023-06-17T16:04:42.165Z,33.4
2023-06-17T16:06:22.518Z,33.38
2023-06-17T16:08:02.872Z,33.08
2023-06-17T16:09:43.194Z,32.69
2023-06-17T16:11:23.448Z,32.03
2023-06-17T16:13:03.761Z,32.29
2023-06-17T16:14:44.098Z,34.03
2023-06-17T16:16:24.408Z,31.89
2023-06-17T16:18:04.707Z,31.42
2023-06-17T16:19:45.266Z,31.11
2023-06-17T16:21:25.579Z,31.27
2023-06-17T16:23:05.990Z,30.25
2023-06-17T16:24:46.480Z,31.05
2023-06-17T16:26:26.865Z,30.5
2023-06-17T16:28:07.347Z,30.89
2023-06-17T16:29:47.846Z,30.85
2023-06-17T16:31:28.290Z,30.28
2023-06-17T16:33:08.717Z,29.94
2023-06-17T16:34:49.093Z,29.92
2023-06-17T16:36:30.102Z,29.35
2023-06-17T16:38:09.968Z,29.65
2023-06-17T16:39:50.443Z,29.91
2023-06-17T16:41:30.935Z,30.11
2023-06-17T16:43:11.514Z,30.41
2023-06-17T16:44:57.072Z,29.42
2023-06-17T16:46:43.232Z,29.72
2023-06-17T16:48:23.645Z,30.3
2023-06-17T16:50:04.103Z,30.18
2023-06-17T16:51:44.440Z,30.49
2023-06-17T16:53:24.838Z,30.94
2023-06-17T16:55:05.296Z,31.76
2023-06-17T16:56:45.700Z,32.18
2023-06-17T16:58:26.071Z,31.92
2023-06-17T17:00:06.617Z,32.73
2023-06-17T17:01:47.022Z,34.41
2023-06-17T17:03:27.458Z,35.6
2023-06-17T17:05:07.938Z,35.39
2023-06-17T17:06:48.400Z,35.5
2023-06-17T17:08:28.850Z,35.37
2023-06-17T17:10:09.345Z,35.34
2023-06-17T17:11:49.789Z,35.81
2023-06-17T17:13:43.625Z,36.04
2023-06-17T17:15:10.659Z,36.01
2023-06-17T17:16:51.084Z,36.22
2023-06-17T17:18:31.541Z,35.35
2023-06-17T17:20:12.086Z,35.56
2023-06-17T17:21:52.451Z,35.37
2023-06-17T17:23:32.858Z,36.2
2023-06-17T17:25:13.435Z,36.7
2023-06-17T17:26:54.092Z,36.36
2023-06-17T17:28:34.555Z,36.95
2023-06-17T17:30:14.962Z,36.7
2023-06-17T17:31:55.437Z,36.13
2023-06-17T17:33:35.824Z,36.34
2023-06-17T17:35:16.269Z,36.52
2023-06-17T17:36:56.757Z,36.69
2023-06-17T17:38:37.311Z,36.83
2023-06-17T17:40:17.774Z,36.15
2023-06-17T17:41:58.228Z,36.47
2023-06-17T17:43:38.706Z,36.65
2023-06-17T17:45:19.241Z,36.8
2023-06-17T17:46:59.708Z,37.13
2023-06-17T17:48:40.185Z,37.58
2023-06-17T17:50:20.800Z,38.03
2023-06-17T17:52:00.974Z,38.43
2023-06-17T17:53:41.378Z,37.81
2023-06-17T17:55:21.817Z,38.06
2023-06-17T17:57:02.225Z,37.22
2023-06-17T17:58:48.302Z,37.33
2023-06-17T18:00:28.752Z,37.41
2023-06-17T18:02:09.276Z,38
2023-06-17T18:04:00.632Z,37.73
2023-06-17T18:05:40.977Z,38.16
2023-06-17T18:07:21.365Z,38.89
2023-06-17T18:09:01.787Z,39.06
2023-06-17T18:10:42.194Z,39.89
2023-06-17T18:12:22.618Z,39.98
2023-06-17T18:14:03.052Z,40.06
2023-06-17T18:15:43.431Z,40.31
2023-06-17T18:17:23.855Z,40.61
2023-06-17T18:19:04.266Z,40.42
2023-06-17T18:20:44.715Z,40.39
2023-06-17T18:22:25.224Z,40.72
2023-06-17T18:24:05.656Z,40.79
2023-06-17T18:25:45.980Z,41.64
2023-06-17T18:27:35.280Z,41.71
2023-06-17T18:29:06.913Z,41.59
2023-06-17T18:30:47.318Z,42.23
2023-06-17T18:32:27.821Z,42.03
2023-06-17T18:34:08.226Z,42.07
2023-06-17T18:35:48.575Z,42.78
2023-06-17T18:37:28.992Z,42.26
2023-06-17T18:39:09.493Z,42.67
2023-06-17T18:40:50.002Z,43.32
2023-06-17T18:42:30.489Z,43.6
2023-06-17T18:44:11.008Z,43.77
2023-06-17T18:45:51.505Z,43.98
2023-06-17T18:47:32.132Z,44.48
2023-06-17T18:49:12.393Z,44.05
2023-06-17T18:50:58.409Z,43.99
2023-06-17T18:52:38.830Z,45.38
2023-06-17T18:54:19.358Z,45.72
2023-06-17T18:55:59.765Z,46.29
2023-06-17T18:57:40.284Z,45.97
2023-06-17T18:59:20.778Z,46.34
2023-06-17T19:01:01.277Z,46.42
2023-06-17T19:02:52.577Z,46.2
2023-06-17T19:04:32.935Z,47.62
2023-06-17T19:06:18.446Z,48.01
2023-06-17T19:07:58.945Z,48.8
2023-06-17T19:09:39.389Z,48.98
2023-06-17T19:11:19.848Z,49.44
2023-06-17T19:13:00.455Z,51.02
2023-06-17T19:14:40.762Z,50.93
2023-06-17T19:16:21.208Z,52.81
2023-06-17T19:18:01.721Z,53.03
2023-06-17T19:19:42.077Z,54.36
2023-06-17T19:21:22.551Z,55.25
2023-06-17T19:23:03.033Z,55.79
2023-06-17T19:24:43.465Z,56.03
2023-06-17T19:26:23.919Z,55.97
2023-06-17T19:28:04.226Z,56.5
2023-06-17T19:29:44.603Z,58.77
2023-06-17T19:31:25.109Z,59.27
2023-06-17T19:33:05.641Z,59.84
2023-06-17T19:34:48.298Z,60.01
2023-06-17T19:36:26.533Z,61.35
2023-06-17T19:38:06.970Z,62.04
2023-06-17T19:39:47.521Z,62.85
2023-06-17T19:41:28.005Z,63.13
2023-06-17T19:43:08.399Z,64.04
2023-06-17T19:44:48.832Z,64.68
2023-06-17T19:46:29.281Z,63.95
2023-06-17T19:48:09.715Z,65.01
2023-06-17T19:49:50.088Z,66.38
2023-06-17T19:51:30.601Z,65.93
2023-06-17T19:53:11.005Z,66.58
2023-06-17T19:54:51.404Z,66
2023-06-17T19:56:31.754Z,66.41
2023-06-17T19:58:12.075Z,67.24
2023-06-17T19:59:52.619Z,67.66
2023-06-17T20:01:32.942Z,67.65
2023-06-17T20:03:13.487Z,69.35
2023-06-17T20:04:53.596Z,68.75
2023-06-17T20:06:34.028Z,69.21
2023-06-17T20:08:14.216Z,69.6
2023-06-17T20:09:54.562Z,69.91
2023-06-17T20:11:34.976Z,69.42
2023-06-17T20:13:15.464Z,70.65
2023-06-17T20:14:55.953Z,69.67
2023-06-17T20:16:36.458Z,70.84
2023-06-17T20:18:16.882Z,70.79
2023-06-17T20:19:57.292Z,70.44
2023-06-17T20:21:37.734Z,70.84
2023-06-17T20:23:18.248Z,71.12
2023-06-17T20:24:58.741Z,71.55
2023-06-17T20:26:39.208Z,71.4
2023-06-17T20:28:19.670Z,72.09
2023-06-17T20:30:00.168Z,72.35
2023-06-17T20:31:40.617Z,71.95
2023-06-17T20:33:21.033Z,72.57
2023-06-17T20:35:01.386Z,73.37
2023-06-17T20:36:41.867Z,73.43
2023-06-17T20:38:22.224Z,73.82
2023-06-17T20:40:02.721Z,74.2
2023-06-17T20:41:43.127Z,74.07
2023-06-17T20:43:23.537Z,74.36
2023-06-17T20:45:03.966Z,74.87
2023-06-17T20:46:44.436Z,74.78
2023-06-17T20:48:24.882Z,74.86
2023-06-17T20:50:05.232Z,75.3
2023-06-17T20:51:45.597Z,75.59
2023-06-17T20:53:26.043Z,75.93
2023-06-17T20:55:06.441Z,75.81
2023-06-17T20:56:46.936Z,76.53
2023-06-17T20:58:27.358Z,77.36
2023-06-17T21:00:07.791Z,78.05
2023-06-17T21:01:48.235Z,78.16
2023-06-17T21:03:28.662Z,78.59
2023-06-17T21:05:09.085Z,78.42
2023-06-17T21:06:49.530Z,78.76
2023-06-17T21:08:29.977Z,78.52
2023-06-17T21:10:10.353Z,78.83
2023-06-17T21:11:50.629Z,78.79
2023-06-17T21:13:30.957Z,78.81
2023-06-17T21:15:11.431Z,79.44
2023-06-17T21:16:51.915Z,78.61
2023-06-17T21:18:32.341Z,79.2
2023-06-17T21:20:12.836Z,79.68
2023-06-17T21:21:53.329Z,79.15
2023-06-17T21:23:33.803Z,80.14
2023-06-17T21:25:14.223Z,79.92
2023-06-17T21:26:54.712Z,80.08
2023-06-17T21:28:35.156Z,80.87
2023-06-17T21:30:15.606Z,79.74
2023-06-17T21:31:56.010Z,80.37
2023-06-17T21:33:36.454Z,79.98
2023-06-17T21:35:16.829Z,79.98
2023-06-17T21:36:57.245Z,80
2023-06-17T21:38:37.710Z,81.38
2023-06-17T21:40:18.028Z,81.54